Accueil
METAR-TAF:

METAR-TAF

Aéroports :

Aéroport de Saint-Yan

Saint-Yan, France

latitude: 46-24-45N, longitude: 004-00-48E, altitude: 244 m

Observation

Le bulletin a été fait il y a 24 minutes, à 09:30 UTC
Vent 6 kt de est
Température 4°C
Humidité 87%
Pression 1020 hPa
Visibilité: 6000 m
Ciel couvert à une hauteur de 1200 ft

METAR: LFLN 180930Z AUTO 09006KT 6000 OVC012 04/02 Q1020 BECMG NSC

Heure: 10:54 (09:54 UTC)

Prévision

Le bulletin a été fait il y a 1 heure et 54 minutes, à 08:00 UTC
Prévision valable du 18 à 09 UTC au 18 à 18 UTC
Vent 5 kt de est
Visibilité: 4000 m
Quelques nuages à une hauteur de 500 ft
brume
Evoluant progressivement
du 18 à 09 UTC au 18 à 11 UTC
Visibilité 10 km ou plus
pas de nuages en-dessous de 1500 mètres et pas de cumulonimbus.

TAF: LFLN 180800Z 1809/1818 08005KT 4000 BR FEW005 BECMG 1809/1811 CAVOK

Observations et prévisions météorologiques de plus de 4000 aéroports (messages METAR et TAF).

Les stations disponibles sont représentées par des disques jaunes et rouges sur la carte.

Passer la souris dessus pour voir le nom de la station.

Cliquer dessus pour voir les observations et prévisions météorologiques.

Pour changer de carte: cliquez sur les boutons verts avec une croix noire pour zoomer, sur le bouton vert avec un tiret pour effectuer un zoom arrière, ou sur les flèches vertes pour les cartes adjacentes.


METAR-TAF: